Time;durP1;ratioP1;P1;durP2;ratioP2;P2;SDS_P1;SDS_P2;PMS_P1;PMS_P2;Temp;Humidity;BMP_temperature;BMP_pressure;BME280_temperature;BME280_humidity;BME280_pressure;Samples;Min_cycle;Max_cycle;Signal;HPM_P1;HPM_P2
2022/03/14 00:01:50;;;;;;;12.98;8.20;;;8.40;50.90;;;7.44;43.35;97345.88;5022442;23;20436;-79
2022/03/14 00:04:17;;;;;;;11.80;7.78;;;8.50;50.80;;;7.49;43.21;97348.59;5012028;28;20408;-79
2022/03/14 00:06:44;;;;;;;12.93;8.43;;;8.50;50.80;;;7.55;43.44;97360.03;5012260;28;20456;-80
2022/03/14 00:09:10;;;;;;;13.63;8.85;;;8.60;51.00;;;7.58;43.27;97367.47;5012004;28;20437;-80
2022/03/14 00:11:36;;;;;;;13.43;8.75;;;8.60;50.90;;;7.55;43.61;97363.47;5011592;28;20757;-81
2022/03/14 00:14:06;;;;;;;15.10;9.93;;;8.60;51.00;;;7.56;43.58;97382.72;5011975;28;20408;-81
2022/03/14 00:16:41;;;;;;;15.20;9.60;;;8.60;51.10;;;7.57;43.89;97379.84;5011646;28;20784;-80
2022/03/14 00:19:07;;;;;;;15.27;9.52;;;8.60;51.20;;;7.56;43.71;97382.72;5011708;28;20423;-81
2022/03/14 00:21:39;;;;;;;14.10;9.27;;;8.60;51.30;;;7.57;44.03;97411.47;5011185;28;20541;-81
2022/03/14 00:24:08;;;;;;;14.97;8.40;;;8.60;51.30;;;7.55;43.56;97421.41;5012032;28;20461;-81
2022/03/14 00:26:34;;;;;;;14.57;9.75;;;8.60;51.30;;;7.62;44.28;97439.72;5011716;28;20529;-81
2022/03/14 00:29:00;;;;;;;16.73;10.50;;;8.60;51.90;;;7.63;44.31;97446.59;5011695;28;20885;-80
2022/03/14 00:31:26;;;;;;;17.53;10.93;;;8.60;52.00;;;7.60;43.59;97447.88;5011249;28;20469;-80
2022/03/14 00:33:54;;;;;;;19.40;11.05;;;8.60;51.30;;;7.54;43.23;97455.88;5011592;28;20401;-80
2022/03/14 00:36:20;;;;;;;15.07;9.82;;;8.40;50.90;;;7.54;43.14;97446.16;5011654;28;20404;-81
2022/03/14 00:38:46;;;;;;;14.00;9.60;;;8.50;50.60;;;7.63;42.27;97444.78;5011705;28;20407;-79
2022/03/14 00:41:16;;;;;;;16.38;9.90;;;8.60;50.40;;;7.70;42.40;97449.91;5010809;28;20491;-81
2022/03/14 00:43:43;;;;;;;17.70;10.38;;;8.70;50.10;;;7.75;42.37;97455.28;5011498;28;20396;-81
2022/03/14 00:46:09;;;;;;;15.18;9.60;;;8.80;49.90;;;7.79;42.30;97453.81;5011390;28;20769;-81
2022/03/14 00:48:35;;;;;;;17.00;10.63;;;8.80;49.90;;;7.90;41.93;97452.19;5011363;28;20496;-81
2022/03/14 00:51:04;;;;;;;19.87;11.70;;;8.90;49.60;;;7.98;41.14;97457.91;5010879;28;20408;-80
2022/03/14 00:53:31;;;;;;;16.92;10.82;;;8.90;49.00;;;8.04;41.39;97464.09;5011279;28;20439;-80
2022/03/14 00:55:58;;;;;;;17.42;10.23;;;9.00;48.60;;;8.09;41.04;97477.38;5011435;28;20416;-80
2022/03/14 00:58:24;;;;;;;19.95;11.73;;;9.10;48.60;;;8.16;40.99;97486.75;5011386;28;20503;-81
2022/03/14 01:00:50;;;;;;;21.10;12.32;;;9.10;48.40;;;8.28;40.31;97496.47;5006943;28;20413;-81
2022/03/14 01:03:16;;;;;;;26.75;13.88;;;9.20;47.80;;;8.35;39.94;97512.97;5011107;28;20754;-82
2022/03/14 01:05:42;;;;;;;26.02;14.23;;;9.30;47.60;;;8.45;40.82;97515.84;5011270;28;20397;-81
2022/03/14 01:08:09;;;;;;;25.55;14.68;;;9.40;48.10;;;8.54;41.19;97530.25;5011268;28;20571;-80
2022/03/14 01:10:35;;;;;;;24.42;14.45;;;9.50;48.90;;;8.62;41.72;97531.72;5015117;28;20443;-80
2022/03/14 01:13:03;;;;;;;27.50;17.20;;;9.60;49.50;;;8.69;45.50;97538.47;5016736;28;20412;-80
2022/03/14 01:15:29;;;;;;;26.08;16.42;;;9.60;53.50;;;8.77;47.06;97556.56;5011754;28;21332;-80
2022/03/14 01:17:55;;;;;;;27.40;16.63;;;9.70;55.20;;;8.79;48.58;97559.00;5010862;28;20458;-80
2022/03/14 01:20:21;;;;;;;23.17;15.90;;;9.70;56.30;;;8.80;49.41;97558.72;5010410;28;20409;-80
2022/03/14 01:22:48;;;;;;;27.10;17.02;;;9.70;57.10;;;8.79;50.02;97575.63;5011144;28;20511;-81
2022/03/14 01:25:15;;;;;;;25.05;15.57;;;9.70;58.00;;;8.79;49.48;97583.53;5011268;28;20401;-81
2022/03/14 01:27:41;;;;;;;27.40;18.07;;;9.70;57.60;;;8.80;51.44;97595.69;5011152;28;20957;-81
2022/03/14 01:30:08;;;;;;;28.55;16.10;;;9.80;59.50;;;8.81;50.41;97597.28;5010566;28;20499;-81
2022/03/14 01:32:34;;;;;;;25.73;16.77;;;9.80;58.70;;;8.81;51.46;97607.84;5011077;28;20409;-80
2022/03/14 01:35:00;;;;;;;25.33;17.52;;;9.80;59.60;;;8.80;52.93;97627.34;5009640;28;20420;-80
2022/03/14 01:37:26;;;;;;;24.63;15.73;;;9.70;62.10;;;8.79;53.06;97631.06;5011143;28;20403;-80
2022/03/14 01:39:52;;;;;;;30.05;17.40;;;9.70;62.30;;;8.78;54.44;97637.38;5011070;28;20405;-80
2022/03/14 01:42:20;;;;;;;24.55;15.55;;;9.70;63.80;;;8.78;54.25;97642.66;5011022;28;20417;-80
2022/03/14 01:44:47;;;;;;;26.30;16.33;;;9.70;63.50;;;8.78;55.71;97641.84;5011096;28;20450;-80
2022/03/14 01:47:14;;;;;;;23.00;15.40;;;9.70;66.00;;;8.78;55.50;97650.56;5011247;28;20400;-80
2022/03/14 01:49:41;;;;;;;25.88;16.77;;;9.70;65.00;;;8.79;57.71;97654.81;5011026;28;20405;-81
2022/03/14 01:52:08;;;;;;;20.80;14.87;;;9.70;68.40;;;8.79;58.97;97664.56;5010991;28;20405;-80
2022/03/14 01:54:35;;;;;;;21.10;14.48;;;9.70;70.10;;;8.77;59.28;97666.63;5011468;28;20397;-80
2022/03/14 01:57:01;;;;;;;26.40;16.92;;;9.70;70.20;;;8.76;60.97;97675.56;5011591;28;20400;-80
2022/03/14 01:59:29;;;;;;;22.75;16.38;;;9.70;72.60;;;8.72;62.02;97688.41;5010145;28;20737;-81
2022/03/14 02:01:56;;;;;;;22.65;15.82;;;9.70;73.70;;;8.69;62.46;97690.72;5010789;28;20416;-81
2022/03/14 02:04:22;;;;;;;24.80;16.98;;;9.60;74.50;;;8.68;64.26;97697.03;5011574;28;20483;-80
2022/03/14 02:06:51;;;;;;;23.80;15.85;;;9.60;76.40;;;8.64;64.97;97709.09;5026154;28;20405;-81
2022/03/14 02:09:16;;;;;;;23.73;16.17;;;9.60;77.90;;;8.61;65.99;97704.28;5026427;28;20942;-79
2022/03/14 02:11:52;;;;;;;24.35;16.35;;;9.50;78.20;;;8.54;66.07;97707.84;5014695;28;20393;-80
2022/03/14 02:14:18;;;;;;;23.67;16.15;;;9.50;78.60;;;8.48;67.17;97721.94;5025284;28;20483;-79
2022/03/14 02:16:45;;;;;;;21.08;14.95;;;9.50;80.00;;;8.42;67.79;97727.34;5019103;28;20948;-79
2022/03/14 02:19:11;;;;;;;22.60;15.75;;;9.40;80.80;;;8.38;68.50;97734.09;5010457;28;20883;-79
2022/03/14 02:21:39;;;;;;;22.90;16.67;;;9.40;81.80;;;8.34;68.98;97735.59;5010002;28;20416;-78
2022/03/14 02:24:05;;;;;;;27.40;18.37;;;9.30;82.70;;;8.30;69.68;97735.19;5010519;28;20971;-79
2022/03/14 02:26:35;;;;;;;26.90;17.95;;;9.30;83.30;;;8.28;69.74;97737.25;5012005;28;20809;-80
2022/03/14 02:29:01;;;;;;;26.63;18.08;;;9.20;83.40;;;8.26;69.70;97746.44;5013863;28;20428;-80
2022/03/14 02:31:27;;;;;;;23.92;17.27;;;9.20;83.60;;;8.23;69.39;97739.78;5013439;28;20405;-80
2022/03/14 02:33:53;;;;;;;25.73;16.70;;;9.20;83.60;;;8.23;69.71;97750.31;5013897;28;20411;-80
2022/03/14 02:36:19;;;;;;;26.77;18.02;;;9.20;83.70;;;8.24;69.64;97751.13;5013836;28;20404;-80
2022/03/14 02:38:46;;;;;;;22.73;17.05;;;9.20;83.70;;;8.21;69.42;97752.38;5013833;28;20887;-80
2022/03/14 02:41:13;;;;;;;22.50;16.13;;;9.20;83.50;;;8.20;69.08;97750.75;5013144;28;20489;-80
2022/03/14 02:43:39;;;;;;;22.80;16.63;;;9.20;83.40;;;8.21;68.88;97756.84;5013729;28;20491;-80
2022/03/14 02:46:05;;;;;;;23.33;16.00;;;9.20;83.20;;;8.23;68.96;97762.72;5013668;28;20427;-80
2022/03/14 02:48:31;;;;;;;23.40;16.42;;;9.20;83.30;;;8.24;71.02;97769.59;5013765;28;20739;-79
2022/03/14 02:50:57;;;;;;;26.52;17.40;;;9.20;85.00;;;8.18;72.40;97767.88;5013100;28;20844;-79
2022/03/14 02:53:23;;;;;;;28.42;19.17;;;9.10;87.20;;;8.04;74.54;97773.31;5013549;28;20484;-78
2022/03/14 02:55:50;;;;;;;29.67;17.27;;;9.00;89.10;;;7.85;79.17;97781.50;5013244;28;20401;-78
2022/03/14 02:58:16;;;;;;;44.10;22.80;;;8.80;91.80;;;7.68;82.03;97784.75;5013375;28;20898;-78
2022/03/14 03:00:42;;;;;;;58.95;24.55;;;8.60;93.30;;;7.55;84.22;97792.03;5012716;28;20732;-78
2022/03/14 03:03:11;;;;;;;71.93;26.60;;;8.50;94.70;;;7.51;86.24;97796.94;5013139;28;20420;-77
2022/03/14 03:05:43;;;;;;;88.38;28.17;;;8.40;95.60;;;7.41;87.25;97801.13;5013177;28;20408;-78
2022/03/14 03:08:09;;;;;;;96.03;31.20;;;8.40;96.10;;;7.37;88.00;97806.81;5013090;28;20555;-77
2022/03/14 03:10:35;;;;;;;86.57;29.80;;;8.30;96.80;;;7.36;88.55;97789.44;5012480;28;20401;-79
2022/03/14 03:13:02;;;;;;;105.60;31.75;;;8.40;97.10;;;7.39;88.85;97788.97;5013496;28;20412;-79
2022/03/14 03:15:29;;;;;;;95.43;32.88;;;8.40;97.60;;;7.42;89.39;97802.72;5012016;28;20810;-79
2022/03/14 03:17:55;;;;;;;106.65;31.48;;;8.30;97.90;;;7.29;89.62;97801.84;5012689;28;20491;-79
2022/03/14 03:20:21;;;;;;;126.00;38.78;;;8.30;98.00;;;7.37;89.78;97806.00;5012143;28;20507;-79
2022/03/14 03:22:47;;;;;;;113.50;34.33;;;8.30;98.40;;;7.40;90.13;97810.84;5012411;28;20420;-79
2022/03/14 03:25:13;;;;;;;98.97;30.90;;;8.30;98.70;;;7.36;90.34;97825.50;5012642;28;20416;-78
2022/03/14 03:27:39;;;;;;;99.07;30.38;;;8.30;98.80;;;7.33;90.61;97833.81;5012466;28;20913;-78
2022/03/14 03:30:07;;;;;;;100.93;30.40;;;8.30;98.90;;;7.27;90.77;97829.44;5012195;28;20427;-77
2022/03/14 03:32:34;;;;;;;104.60;31.48;;;8.20;99.00;;;7.31;90.84;97841.94;5012364;28;20416;-78
2022/03/14 03:35:00;;;;;;;96.50;28.70;;;8.30;99.30;;;7.27;90.99;97856.56;5012352;28;20562;-78
2022/03/14 03:37:26;;;;;;;95.68;27.83;;;8.30;99.50;;;7.31;91.08;97860.34;5011504;28;20427;-78
2022/03/14 03:39:52;;;;;;;93.43;25.90;;;8.30;99.80;;;7.36;91.03;97857.91;5012231;28;20452;-78
2022/03/14 03:42:18;;;;;;;102.57;25.65;;;8.40;99.90;;;7.39;91.10;97870.59;5011831;28;20539;-78
2022/03/14 03:44:44;;;;;;;93.70;25.50;;;8.40;99.90;;;7.45;91.15;97873.38;5012543;28;20408;-77
2022/03/14 03:47:11;;;;;;;103.05;26.45;;;8.50;99.90;;;7.49;91.09;97867.47;5012397;28;20409;-79
2022/03/14 03:49:38;;;;;;;120.20;33.00;;;8.50;99.90;;;7.51;91.23;97881.25;5012113;28;20616;-77
2022/03/14 03:52:05;;;;;;;116.97;31.55;;;8.50;99.90;;;7.43;91.23;97889.44;5011552;28;20402;-78
2022/03/14 03:54:31;;;;;;;106.77;28.00;;;8.40;99.90;;;7.48;91.13;97891.41;5012199;28;20407;-78
2022/03/14 03:56:57;;;;;;;110.57;28.13;;;8.40;99.90;;;7.60;91.04;97897.53;5012233;28;20495;-79
2022/03/14 03:59:23;;;;;;;100.07;27.60;;;8.50;99.90;;;7.70;91.01;97908.38;5011940;28;20424;-78
2022/03/14 04:01:49;;;;;;;100.40;26.20;;;8.60;99.90;;;7.74;90.77;97914.84;5011405;28;20428;-79
2022/03/14 04:04:16;;;;;;;95.93;25.63;;;8.60;99.90;;;7.55;90.63;97911.38;5012151;28;20407;-77
2022/03/14 04:06:43;;;;;;;89.68;25.77;;;8.60;99.90;;;7.49;90.74;97914.09;5012001;28;20405;-78
2022/03/14 04:09:09;;;;;;;92.45;25.10;;;8.50;99.90;;;7.42;91.01;97918.63;5011987;28;21054;-78
2022/03/14 04:11:35;;;;;;;90.13;22.63;;;8.50;99.90;;;7.36;90.96;97915.03;5011590;28;20464;-78
2022/03/14 04:14:02;;;;;;;77.90;20.80;;;8.40;99.90;;;7.36;91.32;97912.41;5010784;28;20405;-78
2022/03/14 04:16:29;;;;;;;126.53;24.08;;;8.40;99.90;;;7.38;91.24;97907.69;5010701;28;20420;-78
2022/03/14 04:18:55;;;;;;;93.88;20.98;;;8.40;99.90;;;7.36;91.46;97904.50;5009716;28;20891;-79
2022/03/14 04:21:23;;;;;;;101.85;27.85;;;8.40;99.90;;;7.45;91.63;97923.44;5011199;28;20476;-79
2022/03/14 04:23:49;;;;;;;109.72;31.95;;;8.40;99.90;;;7.38;91.77;97939.28;5010299;28;20830;-79
2022/03/14 04:26:15;;;;;;;108.07;30.65;;;8.30;99.90;;;7.24;91.83;97945.69;5011713;28;20392;-82
2022/03/14 04:28:42;;;;;;;105.60;29.63;;;8.20;99.90;;;7.23;91.98;97958.06;5011911;28;20405;-82
2022/03/14 04:31:09;;;;;;;121.47;28.25;;;8.20;99.90;;;7.13;91.90;97972.75;5011256;28;21003;-84
2022/03/14 04:33:35;;;;;;;96.60;27.63;;;8.10;99.90;;;7.21;91.92;97972.47;5011973;28;20447;-84
2022/03/14 04:36:02;;;;;;;94.75;26.50;;;8.10;99.90;;;7.21;92.30;97985.66;5011885;28;20412;-83
2022/03/14 04:38:30;;;;;;;91.97;25.70;;;8.20;99.90;;;7.13;92.24;97997.25;5011746;28;20407;-84
2022/03/14 04:40:56;;;;;;;86.30;22.93;;;8.10;99.90;;;7.08;92.12;97998.88;5011323;28;20404;-84
2022/03/14 04:43:23;;;;;;;79.97;20.00;;;8.10;99.90;;;7.02;92.32;98000.56;5011717;28;20644;-83
2022/03/14 04:45:49;;;;;;;60.40;17.20;;;8.00;99.90;;;7.05;92.33;97989.59;5011593;28;20397;-82
2022/03/14 04:48:15;;;;;;;60.60;16.65;;;8.10;99.90;;;7.10;92.33;98000.28;5011711;28;20404;-82
2022/03/14 04:50:42;;;;;;;67.43;19.73;;;8.10;99.90;;;7.14;92.32;98005.97;5011633;28;20452;-83
2022/03/14 04:53:09;;;;;;;58.25;17.02;;;8.10;99.90;;;7.07;92.39;97995.44;5010250;28;20463;-77
2022/03/14 04:55:37;;;;;;;60.88;15.95;;;8.10;99.90;;;7.08;92.36;97991.78;5011673;28;20408;-83
2022/03/14 04:58:04;;;;;;;69.45;19.90;;;8.10;99.90;;;7.16;92.69;97994.16;5010338;28;20847;-79
2022/03/14 05:00:30;;;;;;;55.92;17.13;;;8.10;99.90;;;7.08;92.40;97997.06;5011019;28;20555;-79
2022/03/14 05:03:00;;;;;;;50.55;16.63;;;8.10;99.90;;;7.14;92.51;97990.16;5015265;28;20490;-81
2022/03/14 05:05:26;;;;;;;49.45;14.38;;;8.10;99.90;;;7.03;92.42;97994.28;5012483;28;20429;-83
2022/03/14 05:07:52;;;;;;;42.23;14.73;;;8.10;99.90;;;7.05;92.60;97996.69;5029038;28;20407;-81
2022/03/14 05:10:19;;;;;;;41.38;14.38;;;8.00;99.90;;;7.06;92.60;98003.59;5030991;28;20478;-77
2022/03/14 05:12:46;;;;;;;36.75;13.25;;;8.00;99.90;;;7.02;92.82;98018.16;5019722;28;20782;-75
2022/03/14 05:15:17;;;;;;;35.55;12.10;;;7.90;99.90;;;6.79;92.73;98035.31;5018390;28;20435;-76
2022/03/14 05:17:44;;;;;;;28.67;10.07;;;7.70;99.90;;;6.67;92.60;98033.56;5029311;28;20397;-76
2022/03/14 05:20:11;;;;;;;24.27;8.60;;;7.60;99.90;;;6.60;92.52;98033.59;5016619;28;20920;-84
2022/03/14 05:22:42;;;;;;;16.42;7.75;;;7.60;99.90;;;6.47;92.63;98042.34;5015614;28;20400;-84
2022/03/14 05:25:09;;;;;;;16.73;7.30;;;7.50;99.90;;;6.41;92.50;98055.50;5011568;28;20477;-79
2022/03/14 05:27:35;;;;;;;23.17;9.05;;;7.40;99.90;;;6.43;92.49;98061.38;5020954;28;20418;-77
2022/03/14 05:30:04;;;;;;;18.58;7.50;;;7.40;99.90;;;6.32;92.38;98067.25;5006888;28;20419;-76
2022/03/14 05:32:30;;;;;;;19.70;8.02;;;7.30;99.90;;;6.40;92.60;98067.03;5011390;28;20443;-76
2022/03/14 05:34:56;;;;;;;20.42;7.85;;;7.40;99.90;;;6.27;92.65;98070.53;5007119;28;20499;-77
2022/03/14 05:37:22;;;;;;;18.45;8.40;;;7.40;99.90;;;6.35;92.61;98067.66;5010363;28;20401;-77
2022/03/14 05:39:48;;;;;;;21.77;8.50;;;7.40;99.90;;;6.37;92.73;98072.72;5010156;28;20459;-76
2022/03/14 05:42:15;;;;;;;22.47;8.90;;;7.30;99.90;;;6.36;92.88;98082.44;5009762;28;20436;-77
2022/03/14 05:44:43;;;;;;;16.80;7.13;;;7.30;99.90;;;6.22;92.73;98086.94;5010220;28;20554;-77
2022/03/14 05:47:11;;;;;;;13.80;6.97;;;7.20;99.90;;;6.18;92.92;98092.78;5007698;28;21083;-76
2022/03/14 05:49:36;;;;;;;10.32;5.80;;;7.10;99.90;;;6.06;92.86;98097.88;5009826;28;20401;-77
2022/03/14 05:52:05;;;;;;;13.23;5.70;;;7.00;99.90;;;6.04;92.89;98106.97;5009536;28;20467;-76
2022/03/14 05:54:34;;;;;;;10.02;5.70;;;7.00;99.90;;;6.08;92.93;98106.38;5008520;28;20992;-75
2022/03/14 05:57:00;;;;;;;12.82;6.05;;;7.10;99.90;;;6.09;92.94;98109.81;5008090;28;20423;-77
2022/03/14 05:59:26;;;;;;;12.98;5.95;;;7.10;99.90;;;6.01;93.07;98116.09;5009779;28;20444;-77
2022/03/14 06:01:52;;;;;;;11.98;6.63;;;7.00;99.90;;;6.02;93.18;98124.75;5015334;23;20478;-73
2022/03/14 06:04:19;;;;;;;11.80;5.95;;;7.00;99.90;;;6.01;93.32;98129.22;5013918;28;20411;-74
2022/03/14 06:06:47;;;;;;;10.45;5.78;;;7.00;99.90;;;5.96;92.94;98130.81;5014230;28;20417;-75
2022/03/14 06:09:13;;;;;;;10.05;5.80;;;7.00;99.90;;;5.94;93.43;98128.38;5006269;28;20396;-76
2022/03/14 06:11:39;;;;;;;10.13;5.70;;;6.90;99.90;;;5.97;93.50;98127.19;5013641;28;20874;-76
2022/03/14 06:14:05;;;;;;;10.95;5.53;;;7.00;99.90;;;5.86;93.47;98125.97;5014364;28;21003;-77
2022/03/14 06:16:31;;;;;;;12.55;6.38;;;6.90;99.90;;;5.87;93.53;98129.38;5013975;28;20396;-73
2022/03/14 06:18:57;;;;;;;14.65;6.53;;;6.80;99.90;;;5.81;93.58;98131.81;5012839;28;21000;-75
2022/03/14 06:21:24;;;;;;;11.10;5.70;;;6.80;99.90;;;5.73;93.37;98139.88;5013597;28;20512;-75
2022/03/14 06:23:50;;;;;;;14.30;5.93;;;6.80;99.90;;;5.63;93.37;98147.38;5013691;28;20486;-76
2022/03/14 06:26:19;;;;;;;11.88;6.00;;;6.70;99.90;;;5.63;93.50;98150.00;5013357;28;20414;-74
2022/03/14 06:28:45;;;;;;;12.13;5.70;;;6.70;99.90;;;5.58;93.41;98152.41;5009897;28;20970;-84
2022/03/14 06:31:14;;;;;;;16.13;5.40;;;6.60;99.90;;;5.53;93.50;98154.81;5011015;28;20922;-81
2022/03/14 06:33:40;;;;;;;11.63;5.57;;;6.70;99.90;;;5.58;93.57;98152.41;5006824;28;20430;-80
2022/03/14 06:36:06;;;;;;;13.45;5.70;;;6.70;99.90;;;5.58;93.59;98162.09;5012436;28;20412;-80
2022/03/14 06:38:35;;;;;;;14.70;5.80;;;6.70;99.90;;;5.51;93.56;98172.59;5010257;28;21131;-80
2022/03/14 06:41:01;;;;;;;15.02;5.95;;;6.60;99.90;;;5.52;93.69;98170.78;5020135;28;20470;-81
2022/03/14 06:43:28;;;;;;;16.52;6.38;;;6.60;99.90;;;5.51;93.70;98180.47;5013449;28;20472;-82
2022/03/14 06:45:54;;;;;;;15.93;5.90;;;6.60;99.90;;;5.42;93.69;98190.34;5006857;28;20425;-84
2022/03/14 06:48:20;;;;;;;13.88;6.18;;;6.50;99.90;;;5.45;94.25;98191.75;5006467;28;20420;-84
2022/03/14 06:50:46;;;;;;;18.33;6.60;;;6.50;99.90;;;5.41;93.74;98193.97;5011851;28;20766;-85
2022/03/14 06:53:12;;;;;;;16.07;7.17;;;6.50;99.90;;;5.32;93.73;98197.00;5012311;28;20433;-84
2022/03/14 06:55:40;;;;;;;16.15;6.70;;;6.40;99.90;;;5.32;93.75;98189.94;5012670;28;20413;-84
2022/03/14 06:58:06;;;;;;;14.57;6.60;;;6.40;99.90;;;5.39;93.90;98193.38;5012229;28;20495;-84
2022/03/14 07:00:32;;;;;;;15.75;6.78;;;6.40;99.90;;;5.53;94.00;98188.16;5011274;28;20417;-84
2022/03/14 07:02:58;;;;;;;15.07;6.97;;;6.60;99.90;;;5.61;93.99;98193.22;5007112;28;20515;-84
2022/03/14 07:05:26;;;;;;;19.63;6.90;;;6.70;99.90;;;5.69;93.96;98187.78;5008074;28;20404;-85
2022/03/14 07:07:55;;;;;;;19.48;7.00;;;6.70;99.90;;;5.77;94.16;98191.03;5002798;28;20424;-85
2022/03/14 07:10:21;;;;;;;13.07;6.80;;;6.80;99.90;;;5.80;94.35;98190.59;5011122;28;20405;-83
2022/03/14 07:12:48;;;;;;;19.35;6.65;;;6.80;99.90;;;5.86;94.50;98190.84;5012188;28;20515;-84
2022/03/14 07:15:16;;;;;;;14.23;6.07;;;6.90;99.90;;;5.88;94.57;98200.16;5010643;28;20405;-85
2022/03/14 07:17:43;;;;;;;15.63;6.05;;;6.90;99.90;;;5.93;94.68;98200.38;5012270;28;20401;-85
2022/03/14 07:20:10;;;;;;;11.90;5.57;;;6.90;99.90;;;5.88;94.79;98202.78;5015068;28;20404;-83
2022/03/14 07:22:53;;;;;;;12.30;4.90;;;6.80;99.90;;;5.86;94.73;98204.78;5020549;28;20755;-80
2022/03/14 07:25:24;;;;;;;13.63;4.97;;;6.80;99.90;;;5.81;94.88;98208.00;5011265;28;20420;-80
2022/03/14 07:27:53;;;;;;;13.20;4.78;;;6.80;99.90;;;5.93;94.78;98213.50;5002338;28;20856;-84
2022/03/14 07:30:19;;;;;;;13.13;4.63;;;6.90;99.90;;;6.02;95.00;98222.78;5012221;28;20439;-81
2022/03/14 07:32:46;;;;;;;14.23;4.55;;;7.00;99.90;;;5.99;95.25;98227.66;5002270;28;20422;-80
2022/03/14 07:35:12;;;;;;;12.25;4.53;;;7.00;99.90;;;5.94;95.21;98228.25;5003686;28;20921;-79
2022/03/14 07:37:39;;;;;;;10.23;3.97;;;6.90;99.90;;;6.09;95.34;98233.34;5006984;28;20419;-82
2022/03/14 07:40:07;;;;;;;16.58;4.65;;;7.00;99.90;;;6.15;95.35;98238.59;5011920;28;20413;-80
2022/03/14 07:42:37;;;;;;;16.55;4.65;;;7.10;99.90;;;6.05;95.39;98247.88;5009115;28;20972;-82
2022/03/14 07:45:07;;;;;;;14.27;3.95;;;7.00;99.90;;;6.09;95.37;98252.50;5013697;28;20405;-85
2022/03/14 07:47:33;;;;;;;13.23;4.60;;;7.10;99.90;;;6.11;95.50;98247.88;5004656;28;20471;-87
2022/03/14 07:49:59;;;;;;;12.82;3.70;;;7.10;99.90;;;6.15;95.58;98269.31;5005501;28;20403;-86
2022/03/14 07:52:25;;;;;;;12.70;4.03;;;7.10;99.90;;;6.30;95.60;98275.19;5002035;28;20948;-84
2022/03/14 07:54:51;;;;;;;16.77;4.68;;;7.20;99.90;;;6.38;95.60;98285.53;5006919;28;20409;-80
2022/03/14 07:57:17;;;;;;;13.88;3.90;;;7.30;99.90;;;6.28;95.68;98282.47;5013544;28;20440;-85
2022/03/14 07:59:46;;;;;;;10.75;3.67;;;7.20;99.90;;;6.26;95.75;98281.03;5031687;28;20438;-85
2022/03/14 08:02:14;;;;;;;13.18;3.90;;;7.20;99.90;;;6.38;95.72;98287.34;5016013;28;21032;-87
2022/03/14 08:04:40;;;;;;;10.33;4.10;;;7.30;99.90;;;6.46;95.91;98293.22;5029599;28;20969;-85
2022/03/14 08:07:06;;;;;;;12.88;3.88;;;7.40;99.90;;;6.43;95.90;98295.41;5013884;28;20420;-81
2022/03/14 08:09:32;;;;;;;10.98;3.40;;;7.30;99.90;;;6.53;96.11;98301.91;5026962;28;20784;-83
2022/03/14 08:11:59;;;;;;;9.27;3.40;;;7.50;99.90;;;6.72;96.15;98320.50;5037137;28;20407;-83
2022/03/14 08:14:25;;;;;;;15.60;3.25;;;7.60;99.90;;;6.75;96.15;98325.38;5021584;28;20423;-85
2022/03/14 08:16:51;;;;;;;14.35;3.30;;;7.70;99.90;;;6.58;96.15;98336.28;5032870;28;20485;-84
2022/03/14 08:19:18;;;;;;;11.73;2.80;;;7.50;99.50;;;6.53;96.34;98351.06;5026445;28;20456;-86
2022/03/14 08:21:46;;;;;;;14.80;3.50;;;7.40;99.90;;;6.56;96.14;98337.50;5017943;28;20558;-78
2022/03/14 08:24:12;;;;;;;14.23;2.70;;;7.50;99.90;;;6.57;96.59;98342.56;5010111;28;20482;-78
2022/03/14 08:26:39;;;;;;;9.32;2.40;;;7.50;99.90;;;6.55;96.25;98346.41;5019999;28;20438;-86
2022/03/14 08:29:05;;;;;;;10.07;2.90;;;7.50;98.20;;;6.90;96.09;98345.19;5020022;28;20491;-87
2022/03/14 08:31:32;;;;;;;11.60;2.38;;;7.70;99.90;;;6.98;95.84;98347.63;5010708;28;20477;-88
2022/03/14 08:33:59;;;;;;;11.32;2.40;;;8.00;97.70;;;7.23;95.65;98345.13;5009680;28;20475;-84
2022/03/14 08:36:27;;;;;;;11.07;2.22;;;8.10;98.30;;;7.22;94.80;98351.41;5015558;28;20763;-84
2022/03/14 08:38:53;;;;;;;9.30;2.15;;;8.20;95.50;;;7.43;93.37;98354.81;4996020;28;20524;-83
2022/03/14 08:41:20;;;;;;;9.20;2.20;;;8.20;98.30;;;7.38;92.73;98360.69;5005145;28;20420;-87
2022/03/14 08:43:48;;;;;;;7.00;2.50;;;8.30;94.20;;;7.68;91.84;98361.00;5015346;28;20447;-85
2022/03/14 08:46:15;;;;;;;8.55;2.17;;;8.50;98.50;;;7.61;92.17;98376.84;5008855;28;20422;-87
2022/03/14 08:48:41;;;;;;;7.60;1.95;;;8.60;97.80;;;7.76;91.95;98372.13;5008909;28;20418;-79
2022/03/14 08:51:08;;;;;;;8.25;2.22;;;8.70;99.40;;;7.69;92.21;98376.63;5014798;28;20410;-79
2022/03/14 08:53:35;;;;;;;7.30;2.30;;;8.70;98.80;;;7.89;91.65;98383.66;5001535;28;20444;-78
2022/03/14 08:56:02;;;;;;;4.38;2.17;;;8.70;98.60;;;8.18;91.97;98374.41;5004308;28;20512;-79
2022/03/14 08:58:29;;;;;;;6.80;1.83;;;8.90;99.60;;;8.30;92.11;98381.41;5027777;28;20704;-82
2022/03/14 09:00:55;;;;;;;7.28;1.80;;;9.10;99.40;;;8.45;92.36;98392.50;5019867;28;20414;-81
2022/03/14 09:03:21;;;;;;;7.80;2.15;;;9.30;99.70;;;8.23;88.34;98393.03;5003014;28;20425;-82
2022/03/14 09:05:48;;;;;;;4.97;1.73;;;9.10;95.20;;;8.52;89.45;98392.47;4999389;28;20417;-80
2022/03/14 09:08:14;;;;;;;6.60;2.05;;;9.30;98.30;;;8.80;91.81;98392.88;5003543;28;20455;-81
2022/03/14 09:10:42;;;;;;;5.80;1.80;;;9.60;99.90;;;8.54;89.50;98403.63;5016692;28;20402;-80
2022/03/14 09:13:08;;;;;;;11.38;2.47;;;9.50;95.60;;;8.54;86.31;98388.59;5025177;28;20415;-86
2022/03/14 09:15:33;;;;;;;4.82;1.83;;;9.40;95.10;;;8.48;86.30;98397.38;5008693;28;20789;-81
2022/03/14 09:18:00;;;;;;;6.25;1.75;;;9.40;96.00;;;8.68;88.58;98396.44;5000743;28;20405;-80
2022/03/14 09:20:28;;;;;;;9.18;2.00;;;9.50;98.20;;;8.44;80.57;98398.00;5000112;28;20408;-79
2022/03/14 09:22:54;;;;;;;5.30;1.85;;;9.30;88.80;;;8.45;82.90;98389.88;5004408;28;20458;-79
2022/03/14 09:25:22;;;;;;;7.15;2.42;;;9.40;92.00;;;8.47;84.29;98398.41;5001350;28;20417;-80
2022/03/14 09:27:53;;;;;;;8.07;1.80;;;9.40;94.80;;;8.41;78.08;98387.88;5004282;28;20453;-82
2022/03/14 09:30:20;;;;;;;7.13;1.80;;;9.30;88.00;;;8.43;81.99;98401.66;5000885;28;20764;-79
2022/03/14 09:32:47;;;;;;;8.25;2.20;;;9.30;94.40;;;8.42;78.44;98398.19;5004640;28;20412;-81
2022/03/14 09:35:14;;;;;;;7.18;2.00;;;9.30;91.90;;;8.57;82.52;98391.84;5003446;28;20919;-82
2022/03/14 09:37:41;;;;;;;8.80;2.08;;;9.40;95.40;;;8.49;78.64;98396.34;5004989;28;20418;-80
2022/03/14 09:40:11;;;;;;;9.45;2.10;;;9.40;93.10;;;8.51;78.00;98383.75;5016086;28;20859;-80
2022/03/14 09:42:40;;;;;;;7.38;2.00;;;9.40;91.50;;;8.53;80.61;98394.91;5004784;28;20397;-83
2022/03/14 09:45:10;;;;;;;6.32;2.00;;;9.50;91.10;;;8.70;81.14;98400.47;5019331;28;20416;-87
2022/03/14 09:47:38;;;;;;;7.55;2.30;;;9.60;94.30;;;8.76;75.77;98391.69;5006235;28;20401;-76
2022/03/14 09:50:14;;;;;;;6.30;1.92;;;9.70;89.00;;;8.85;68.10;98393.06;5001623;28;20436;-83
2022/03/14 09:52:42;;;;;;;6.93;1.95;;;9.80;79.00;;;8.93;70.36;98400.72;5001763;28;20427;-82
2022/03/14 09:55:10;;;;;;;7.68;2.28;;;9.80;84.50;;;9.04;64.54;98393.09;5001759;28;20436;-79
2022/03/14 09:57:38;;;;;;;8.63;1.90;;;9.90;74.40;;;9.13;70.78;98400.53;5006154;28;20391;-81
2022/03/14 10:00:18;;;;;;;4.75;1.92;;;10.00;83.20;;;9.30;69.78;98406.09;5007008;28;20400;-87
2022/03/14 10:02:45;;;;;;;8.18;1.83;;;10.20;80.80;;;9.46;66.22;98399.44;5002960;28;20427;-89
2022/03/14 10:05:14;;;;;;;7.75;2.25;;;10.30;79.10;;;9.78;71.72;98398.25;5021875;28;20444;-83
2022/03/14 10:07:43;;;;;;;5.68;1.80;;;10.60;88.90;;;10.30;73.79;98401.31;5006533;28;20906;-82
2022/03/14 10:10:10;;;;;;;9.82;1.88;;;10.90;90.80;;;11.04;63.58;98406.13;5005789;28;20483;-82
2022/03/14 10:12:36;;;;;;;4.40;1.40;;;11.70;77.80;;;12.09;66.67;98394.63;5006938;28;20474;-82
2022/03/14 10:15:05;;;;;;;4.75;1.52;;;12.80;83.70;;;13.41;67.35;98408.34;5001573;28;20459;-83
2022/03/14 10:17:35;;;;;;;7.80;1.77;;;14.20;84.10;;;14.25;50.27;98419.56;5002645;28;20398;-82
2022/03/14 10:20:06;;;;;;;5.53;1.50;;;15.40;58.30;;;14.59;44.71;98415.69;4999613;28;20393;-81
2022/03/14 10:22:35;;;;;;;4.32;1.35;;;15.50;51.20;;;14.61;43.68;98421.56;5005830;28;20495;-83